createdAt,value
2022-10-18T00:00:00.000Z,13.36
2022-10-18T00:15:00.000Z,13.38
2022-10-18T00:30:00.000Z,13.8
2022-10-18T00:45:00.000Z,13.85
2022-10-18T01:00:00.000Z,13.11
2022-10-18T01:15:00.000Z,13.11
2022-10-18T01:30:00.000Z,12.87
2022-10-18T01:45:00.000Z,13.6
2022-10-18T02:00:00.000Z,12.81
2022-10-18T02:15:00.000Z,12.68
2022-10-18T02:30:00.000Z,13.39
2022-10-18T02:45:00.000Z,13.53
2022-10-18T03:00:00.000Z,13.74
2022-10-18T03:15:00.000Z,14.13
2022-10-18T03:30:00.000Z,14.08
2022-10-18T03:45:00.000Z,13.82
2022-10-18T04:00:00.000Z,14.06
2022-10-18T04:15:00.000Z,13.93
2022-10-18T04:30:00.000Z,14.82
2022-10-18T04:45:00.000Z,14.47
2022-10-18T05:00:00.000Z,17.35
2022-10-18T05:15:00.000Z,15.18
2022-10-18T05:30:00.000Z,15.58
2022-10-18T05:45:00.000Z,16.73
2022-10-18T06:00:00.000Z,17.04
2022-10-18T06:15:00.000Z,17.91
2022-10-18T06:30:00.000Z,14.8
2022-10-18T06:45:00.000Z,13.81
2022-10-18T07:00:00.000Z,11.15
2022-10-18T07:15:00.000Z,12.95
2022-10-18T07:30:00.000Z,13.8
2022-10-18T07:45:00.000Z,13.04
2022-10-18T08:00:00.000Z,10.58
2022-10-18T08:15:00.000Z,10
2022-10-18T08:30:00.000Z,10.05
2022-10-18T08:45:00.000Z,10.15
2022-10-18T09:00:00.000Z,9.99
2022-10-18T09:15:00.000Z,10.05
2022-10-18T09:30:00.000Z,9.8
2022-10-18T09:45:00.000Z,9.76
2022-10-18T10:00:00.000Z,10.21
2022-10-18T10:15:00.000Z,10.06
2022-10-18T10:30:00.000Z,9.66
2022-10-18T10:45:00.000Z,9.87
2022-10-18T11:00:00.000Z,10.39
2022-10-18T11:15:00.000Z,10.15
2022-10-18T11:30:00.000Z,10.34
2022-10-18T11:45:00.000Z,10.28
2022-10-18T12:00:00.000Z,10.22
2022-10-18T12:15:00.000Z,10.33
2022-10-18T12:30:00.000Z,10.21
2022-10-18T12:45:00.000Z,10.35
2022-10-18T13:00:00.000Z,10.4
2022-10-18T13:15:00.000Z,10.75
2022-10-18T13:30:00.000Z,10.75
2022-10-18T13:45:00.000Z,11.04
2022-10-18T14:00:00.000Z,11.26
2022-10-18T14:15:00.000Z,11.69
2022-10-18T14:30:00.000Z,11.24
2022-10-18T14:45:00.000Z,13.14
2022-10-18T15:00:00.000Z,11.78
2022-10-18T15:15:00.000Z,12.09
2022-10-18T15:30:00.000Z,19.75
2022-10-18T15:45:00.000Z,19.21
2022-10-18T16:00:00.000Z,15.34
2022-10-18T16:15:00.000Z,14.28
2022-10-18T16:30:00.000Z,15.98
2022-10-18T16:45:00.000Z,14.69
2022-10-18T17:00:00.000Z,20.39
2022-10-18T17:15:00.000Z,19.54
2022-10-18T17:30:00.000Z,18.29
2022-10-18T17:45:00.000Z,18.44
2022-10-18T18:00:00.000Z,19.84
2022-10-18T18:15:00.000Z,19.39
2022-10-18T18:30:00.000Z,19.26
2022-10-18T18:45:00.000Z,22.99
2022-10-18T19:00:00.000Z,19.85
2022-10-18T19:15:00.000Z,17.82
2022-10-18T19:30:00.000Z,19.18
2022-10-18T19:45:00.000Z,20.42
2022-10-18T20:00:00.000Z,20.2
2022-10-18T20:15:00.000Z,19.91
2022-10-18T20:30:00.000Z,19.2
2022-10-18T20:45:00.000Z,20
2022-10-18T21:00:00.000Z,20.45
2022-10-18T21:15:00.000Z,21
2022-10-18T21:30:00.000Z,20.96
2022-10-18T21:45:00.000Z,21.06
2022-10-18T22:00:00.000Z,21.33
2022-10-18T22:15:00.000Z,21.75
2022-10-18T22:30:00.000Z,20.92
2022-10-18T22:45:00.000Z,22.87
2022-10-18T23:00:00.000Z,21.32
2022-10-18T23:15:00.000Z,21.4
2022-10-18T23:30:00.000Z,21.76
2022-10-18T23:45:00.000Z,21.29
